logo
Search for airport 
image banner adimage banner adimage banner ad
image banner ad

FZQA - Lubumbashi

Located in Lubumbashi, Congo, the Democratic Republic of the

ICAO - FZQA, IATA - FBM

Data provided by Airmate  

General information

Coordinates: S11°35'29" E27°31'51"
Elevation is 4290 feet MSL.
 
View others Airports in Katanga

Operational data

Special qualification required
Current time UTC:
Current local time:
Weather
METAR: FZQA 280830Z 09008KT 9000 NSC 28/16 Q1019 NOSIG
TAF: TAF FZQA 271100Z 2712/2818 18006KT 9999 FEW026 BECMG 2715/2717 28012KT BECMG 2804/2806 VRB03KT 8000 NSC
View NOTAMs / SUP AIP / TFR affecting this airport [VIEW]
Communications frequencies: [VIEW]

Runways:

RWY identifierQFULength (ft)Width (ft)SurfaceLDA (ft)
0769°10499164ASP
25249°10499164ASP

Airport contact information

Address: Lubumbashi Congo, the Democratic Republic of the

Satellite view of FZQA